Time;durP1;ratioP1;P1;durP2;ratioP2;P2;SDS_P1;SDS_P2;PMS_P1;PMS_P2;Temp;Humidity;BMP_temperature;BMP_pressure;BME280_temperature;BME280_humidity;BME280_pressure;Samples;Min_cycle;Max_cycle;Signal;HPM_P1;HPM_P2
2021/01/30 09:22:16;;;;;;;23.20;15.50;;;2.80;99.90;;;;;;5073106;28;20791;-78
2021/01/30 09:24:52;;;;;;;25.30;16.08;;;2.80;99.90;;;;;;5073067;28;20172;-80
2021/01/30 09:27:28;;;;;;;22.17;16.58;;;3.00;99.90;;;;;;5073315;28;20251;-79
2021/01/30 09:29:57;;;;;;;21.60;16.48;;;3.30;99.90;;;;;;5070676;28;20349;-79
2021/01/30 09:32:30;;;;;;;21.52;15.90;;;3.60;99.90;;;;;;5067925;28;20157;-80
2021/01/30 09:35:10;;;;;;;23.50;16.50;;;3.80;99.90;;;;;;5067925;28;20184;-79
2021/01/30 09:37:42;;;;;;;19.77;15.00;;;4.10;99.90;;;;;;5067890;28;20168;-79
2021/01/30 09:40:18;;;;;;;18.40;13.95;;;4.30;99.90;;;;;;5067870;28;20196;-80
2021/01/30 09:42:57;;;;;;;19.25;15.50;;;4.50;99.90;;;;;;5067750;28;20222;-80
2021/01/30 09:45:24;;;;;;;16.63;12.98;;;4.60;99.90;;;;;;5067725;28;20238;-80
2021/01/30 09:47:52;;;;;;;19.27;15.00;;;4.80;99.90;;;;;;5067630;28;20176;-79
2021/01/30 09:50:35;;;;;;;18.25;15.75;;;4.90;99.90;;;;;;5067837;28;20160;-80
2021/01/30 09:53:09;;;;;;;20.73;17.17;;;5.00;99.90;;;;;;5067444;28;20176;-80
2021/01/30 09:55:37;;;;;;;19.80;15.63;;;5.00;99.90;;;;;;5071374;28;20168;-80
2021/01/30 09:58:12;;;;;;;18.33;14.30;;;5.10;99.90;;;;;;5068846;28;20561;-79
2021/01/30 10:00:40;;;;;;;15.25;12.70;;;5.20;99.90;;;;;;5054871;28;20288;-79
2021/01/30 10:03:16;;;;;;;17.20;13.80;;;5.30;99.90;;;;;;5063311;28;20210;-80
2021/01/30 10:05:43;;;;;;;19.42;15.43;;;5.30;99.90;;;;;;5070416;28;20171;-79
2021/01/30 10:08:33;;;;;;;15.57;13.75;;;5.40;99.90;;;;;;5067104;28;20192;-78
2021/01/30 10:11:03;;;;;;;20.13;14.82;;;5.40;99.90;;;;;;5057615;28;20215;-79
2021/01/30 10:13:30;;;;;;;16.05;13.30;;;5.50;99.90;;;;;;5066465;28;20211;-78
2021/01/30 10:15:57;;;;;;;14.13;12.13;;;5.50;99.90;;;;;;5067310;28;20171;-78
2021/01/30 10:18:26;;;;;;;16.75;13.18;;;5.60;99.90;;;;;;5067790;28;20193;-79
2021/01/30 10:20:56;;;;;;;15.80;12.55;;;5.60;99.90;;;;;;5067374;28;20180;-79
2021/01/30 10:23:35;;;;;;;16.63;12.55;;;5.70;99.90;;;;;;5067103;28;20169;-80
2021/01/30 10:26:12;;;;;;;19.70;13.75;;;5.70;99.90;;;;;;5067813;28;20207;-80
2021/01/30 10:28:49;;;;;;;15.75;13.30;;;5.70;99.90;;;;;;5066954;28;20184;-79
2021/01/30 10:31:56;;;;;;;14.60;12.30;;;5.70;99.90;;;;;;5061535;28;20204;-80
2021/01/30 10:34:30;;;;;;;14.70;13.18;;;5.70;99.90;;;;;;5054127;28;20188;-79
2021/01/30 10:37:00;;;;;;;15.10;13.40;;;5.70;99.90;;;;;;5054606;28;20172;-78
2021/01/30 10:39:30;;;;;;;14.10;12.60;;;5.70;99.90;;;;;;5052756;28;20181;-79
2021/01/30 10:42:04;;;;;;;14.35;12.35;;;5.60;99.90;;;;;;5052016;28;20618;-81
2021/01/30 10:44:31;;;;;;;16.70;13.95;;;5.60;99.90;;;;;;5052805;28;20247;-79
2021/01/30 10:47:02;;;;;;;17.25;15.05;;;5.60;99.90;;;;;;5053119;28;20169;-79
2021/01/30 10:49:35;;;;;;;12.05;10.60;;;5.60;99.90;;;;;;5051730;28;20185;-79
2021/01/30 10:52:10;;;;;;;14.50;12.60;;;5.60;99.90;;;;;;5053513;28;20173;-79
2021/01/30 10:54:39;;;;;;;13.88;12.40;;;5.60;99.90;;;;;;5050975;28;20255;-79
2021/01/30 10:57:17;;;;;;;13.07;11.10;;;5.60;99.90;;;;;;5049076;28;20165;-79
2021/01/30 10:59:59;;;;;;;13.00;11.57;;;5.60;99.90;;;;;;5046285;28;20201;-81
2021/01/30 11:02:44;;;;;;;13.60;12.15;;;5.70;99.90;;;;;;5045886;28;20184;-81
2021/01/30 11:05:26;;;;;;;10.52;9.52;;;5.70;99.90;;;;;;5048564;28;20165;-80
2021/01/30 11:08:01;;;;;;;9.52;8.57;;;5.80;99.90;;;;;;5036683;28;20176;-81
2021/01/30 11:10:48;;;;;;;9.02;8.07;;;5.80;99.90;;;;;;5040705;28;20203;-80
2021/01/30 11:13:20;;;;;;;8.98;8.07;;;5.90;99.90;;;;;;5053525;28;20177;-80
2021/01/30 11:15:48;;;;;;;11.93;10.60;;;6.00;99.90;;;;;;5052348;28;20179;-79
2021/01/30 11:18:35;;;;;;;10.00;9.00;;;6.00;99.90;;;;;;5052881;28;20196;-79
2021/01/30 11:21:03;;;;;;;9.93;8.93;;;6.00;99.90;;;;;;5050095;28;20196;-79
2021/01/30 11:23:49;;;;;;;10.00;7.80;;;6.00;99.90;;;;;;5047051;28;20284;-80
2021/01/30 11:26:33;;;;;;;8.88;7.95;;;6.00;99.90;;;;;;5037876;28;20173;-82
2021/01/30 11:29:00;;;;;;;9.85;8.95;;;6.00;99.90;;;;;;5057936;28;20196;-79
2021/01/30 11:31:26;;;;;;;10.57;9.60;;;6.00;99.90;;;;;;5053607;28;20197;-81
2021/01/30 11:33:54;;;;;;;10.73;9.70;;;6.00;99.90;;;;;;5052628;28;20169;-80
2021/01/30 11:36:20;;;;;;;8.65;7.85;;;6.00;99.90;;;;;;5052491;28;20615;-81
2021/01/30 11:38:58;;;;;;;7.97;7.22;;;6.00;99.90;;;;;;5050830;28;20262;-80
2021/01/30 11:41:24;;;;;;;8.45;7.65;;;6.00;99.90;;;;;;5053231;28;20164;-80
2021/01/30 11:43:51;;;;;;;10.13;8.77;;;6.10;99.90;;;;;;5051238;28;20196;-81
2021/01/30 11:46:17;;;;;;;11.63;10.63;;;6.10;99.90;;;;;;5051372;28;20708;-81
2021/01/30 11:48:43;;;;;;;10.57;9.57;;;6.00;99.90;;;;;;5051994;28;20193;-79
2021/01/30 11:51:34;;;;;;;9.67;8.50;;;6.00;99.90;;;;;;5057261;28;20238;-80
2021/01/30 11:54:00;;;;;;;9.05;7.88;;;6.00;99.90;;;;;;5044746;28;20582;-80
2021/01/30 11:56:26;;;;;;;10.93;9.83;;;6.10;99.90;;;;;;5040730;28;20173;-79
2021/01/30 11:58:52;;;;;;;10.10;8.53;;;6.10;99.90;;;;;;5041983;28;20608;-80
2021/01/30 12:01:18;;;;;;;9.33;8.33;;;6.10;99.90;;;;;;5050432;28;20169;-80
2021/01/30 12:03:44;;;;;;;9.68;8.65;;;6.10;99.90;;;;;;5052092;28;20576;-81
2021/01/30 12:06:11;;;;;;;8.23;7.40;;;6.20;99.90;;;;;;5052494;28;20169;-80
2021/01/30 12:08:37;;;;;;;7.72;7.03;;;6.20;99.90;;;;;;5040405;28;20225;-80
2021/01/30 12:11:03;;;;;;;9.98;8.98;;;6.20;99.90;;;;;;5047642;28;20258;-80
2021/01/30 12:13:29;;;;;;;10.65;9.57;;;6.30;99.90;;;;;;5058977;28;20176;-80
2021/01/30 12:30:49;;;;;;;8.70;7.80;;;6.20;99.90;;;;;;5601716;23;20776;-81
2021/01/30 12:33:15;;;;;;;10.13;9.13;;;6.20;99.90;;;;;;4985994;28;20195;-80
2021/01/30 12:35:41;;;;;;;7.40;6.70;;;6.30;99.90;;;;;;4979412;28;20642;-80
2021/01/30 12:51:30;;;;;;;5.70;5.30;;;6.80;99.90;;;;;;5305455;23;20778;-79
2021/01/30 12:53:56;;;;;;;4.53;4.17;;;6.80;99.90;;;;;;4955351;28;20168;-80
2021/01/30 12:56:22;;;;;;;4.23;3.83;;;6.80;99.90;;;;;;4971140;28;20588;-79
2021/01/30 14:06:14;;;;;;;1.50;1.40;;;6.50;99.90;;;;;;4967098;28;20600;-78
2021/01/30 14:08:40;;;;;;;2.03;1.80;;;6.50;99.90;;;;;;4939614;29;20197;-79
2021/01/30 14:11:06;;;;;;;1.65;1.40;;;6.40;99.90;;;;;;4962867;28;21110;-79
2021/01/30 14:13:32;;;;;;;1.77;1.47;;;6.50;99.90;;;;;;4966024;28;20199;-79
2021/01/30 14:15:58;;;;;;;2.23;1.60;;;6.50;99.90;;;;;;4966133;28;20180;-79
2021/01/30 14:18:23;;;;;;;1.87;1.77;;;6.50;99.90;;;;;;4972203;28;20189;-79
2021/01/30 14:20:50;;;;;;;2.40;1.83;;;6.40;99.90;;;;;;4954033;28;20204;-79
2021/01/30 14:23:16;;;;;;;2.15;1.50;;;6.30;99.90;;;;;;4962789;28;20188;-79
2021/01/30 14:25:41;;;;;;;3.23;1.73;;;6.30;99.90;;;;;;4977111;28;20179;-79
2021/01/30 14:28:08;;;;;;;2.40;1.83;;;6.30;99.90;;;;;;4979156;28;21221;-78
2021/01/30 14:30:35;;;;;;;1.40;1.30;;;6.30;99.90;;;;;;4974944;28;20208;-79
2021/01/30 14:33:02;;;;;;;1.83;1.50;;;6.20;99.90;;;;;;4964127;28;20202;-79
2021/01/30 14:35:29;;;;;;;1.70;1.20;;;6.30;99.90;;;;;;4974150;28;20172;-79
2021/01/30 14:37:54;;;;;;;1.98;1.65;;;6.20;99.90;;;;;;4972489;28;20179;-79
2021/01/30 14:40:28;;;;;;;1.92;1.75;;;6.30;99.90;;;;;;4960405;28;20164;-79
2021/01/30 14:49:41;;;;;;;1.60;1.27;;;6.30;99.90;;;;;;5738756;23;20232;-79
2021/01/30 14:52:06;;;;;;;1.67;1.30;;;6.30;99.90;;;;;;5013745;28;20171;-79
2021/01/30 14:54:32;;;;;;;2.77;1.87;;;6.30;99.90;;;;;;5023966;28;20529;-79
2021/01/30 14:56:58;;;;;;;2.17;1.90;;;6.30;99.90;;;;;;5001646;28;20167;-79
2021/01/30 14:59:24;;;;;;;2.50;2.23;;;6.40;99.90;;;;;;5020250;28;20601;-79
2021/01/30 15:01:49;;;;;;;1.50;1.40;;;6.40;99.90;;;;;;4976661;28;20193;-79
2021/01/30 15:04:15;;;;;;;2.00;1.67;;;6.40;99.90;;;;;;4998405;28;20170;-79
2021/01/30 15:06:41;;;;;;;1.90;1.57;;;6.30;99.90;;;;;;5025837;28;20178;-79
2021/01/30 15:09:07;;;;;;;2.00;1.63;;;6.30;99.90;;;;;;5023249;28;20605;-79
2021/01/30 15:11:32;;;;;;;1.70;1.60;;;6.20;99.90;;;;;;5020225;28;20656;-79
2021/01/30 15:13:58;;;;;;;1.90;1.37;;;6.20;99.90;;;;;;5000750;28;20784;-79
2021/01/30 15:16:24;;;;;;;2.00;1.63;;;6.20;99.90;;;;;;4996780;28;20182;-80
2021/01/30 15:18:50;;;;;;;1.67;1.10;;;6.10;99.90;;;;;;5003883;28;20674;-80
2021/01/30 15:21:21;;;;;;;1.93;1.50;;;6.10;99.90;;;;;;5003016;28;20183;-79
2021/01/30 15:23:46;;;;;;;1.65;1.20;;;6.10;99.90;;;;;;4988870;28;20286;-78
2021/01/30 15:26:12;;;;;;;1.30;1.10;;;6.10;99.90;;;;;;5006208;28;20171;-79
2021/01/30 15:28:38;;;;;;;1.93;1.40;;;6.20;99.90;;;;;;4991896;28;20213;-77
2021/01/30 15:31:04;;;;;;;1.80;1.27;;;6.10;99.90;;;;;;5025295;28;20198;-77
2021/01/30 15:33:29;;;;;;;1.87;1.30;;;6.10;99.90;;;;;;5027891;28;20708;-79
2021/01/30 15:35:55;;;;;;;1.93;1.30;;;6.10;99.90;;;;;;5008218;28;20162;-79
2021/01/30 15:38:21;;;;;;;1.60;1.30;;;6.10;99.90;;;;;;5025013;28;20631;-79
2021/01/30 15:40:47;;;;;;;1.40;0.90;;;6.10;99.90;;;;;;5001902;28;20179;-79
2021/01/30 15:43:14;;;;;;;2.07;1.20;;;6.00;99.90;;;;;;5020852;28;20196;-78
2021/01/30 15:45:39;;;;;;;1.40;1.20;;;6.00;99.90;;;;;;5003505;28;20578;-79
2021/01/30 15:48:05;;;;;;;1.50;1.00;;;6.00;99.90;;;;;;5005957;28;20210;-78
2021/01/30 15:50:31;;;;;;;2.00;1.40;;;6.00;99.90;;;;;;5006156;28;20260;-79
2021/01/30 15:52:59;;;;;;;1.77;1.17;;;6.00;99.90;;;;;;5006422;28;20672;-79
2021/01/30 15:55:26;;;;;;;1.50;1.10;;;6.00;99.90;;;;;;5002447;28;20695;-80
2021/01/30 15:57:52;;;;;;;1.48;1.05;;;6.00;99.90;;;;;;4984966;28;20642;-80
2021/01/30 16:00:21;;;;;;;1.53;1.10;;;6.10;99.90;;;;;;5013660;28;20171;-78
2021/01/30 16:02:48;;;;;;;2.25;1.10;;;6.10;99.90;;;;;;4983464;28;20191;-79
2021/01/30 16:05:14;;;;;;;1.70;1.30;;;6.10;99.90;;;;;;5000052;28;20171;-78
2021/01/30 16:07:40;;;;;;;1.33;0.98;;;6.10;99.90;;;;;;4995319;28;20167;-79
2021/01/30 16:10:11;;;;;;;1.67;1.10;;;6.10;99.90;;;;;;4993396;28;20289;-80
2021/01/30 16:12:38;;;;;;;2.70;1.75;;;6.10;99.90;;;;;;4974712;28;20175;-79
2021/01/30 16:15:07;;;;;;;1.75;1.30;;;6.10;99.90;;;;;;4991375;28;20174;-80
2021/01/30 16:17:33;;;;;;;1.60;1.00;;;6.10;99.90;;;;;;4991871;28;20298;-78
2021/01/30 16:19:58;;;;;;;1.67;1.40;;;6.10;99.90;;;;;;4973049;28;20286;-79
2021/01/30 16:22:24;;;;;;;3.40;1.20;;;6.20;99.90;;;;;;4967455;28;20170;-77
2021/01/30 16:24:50;;;;;;;1.83;1.20;;;6.20;99.90;;;;;;4975309;28;20275;-78
2021/01/30 16:27:16;;;;;;;1.70;1.07;;;6.20;99.90;;;;;;4954884;28;20567;-80
2021/01/30 16:29:42;;;;;;;2.47;1.27;;;6.20;99.90;;;;;;4995602;28;20244;-80
2021/01/30 16:32:09;;;;;;;2.57;1.10;;;6.20;99.90;;;;;;5007767;28;20597;-80
2021/01/30 16:34:35;;;;;;;2.00;1.50;;;6.20;99.90;;;;;;4991375;28;20938;-80
2021/01/30 16:37:01;;;;;;;1.23;0.90;;;6.20;99.90;;;;;;4991332;28;20579;-81
2021/01/30 16:39:27;;;;;;;1.87;1.30;;;6.10;99.90;;;;;;4991137;28;20221;-79
2021/01/30 16:41:54;;;;;;;2.58;1.20;;;6.20;99.90;;;;;;4973953;28;20589;-79
2021/01/30 16:44:20;;;;;;;1.75;1.40;;;6.20;99.90;;;;;;4991131;28;20167;-78
2021/01/30 16:46:47;;;;;;;1.50;1.17;;;6.20;99.90;;;;;;4995477;28;20238;-81
2021/01/30 16:49:13;;;;;;;2.13;1.50;;;6.10;99.90;;;;;;4990953;28;20206;-78
2021/01/30 16:51:39;;;;;;;2.90;1.50;;;6.10;99.90;;;;;;4973453;28;20190;-79
2021/01/30 16:54:05;;;;;;;1.70;1.07;;;6.00;99.90;;;;;;4992405;28;20580;-79
2021/01/30 16:56:31;;;;;;;2.22;1.38;;;6.00;99.90;;;;;;4993159;28;20266;-80
2021/01/30 16:58:57;;;;;;;1.70;1.10;;;6.00;99.90;;;;;;4992849;28;20615;-78
2021/01/30 17:01:23;;;;;;;1.40;1.17;;;6.00;99.90;;;;;;4978100;28;20210;-80
2021/01/30 17:03:48;;;;;;;1.53;1.43;;;6.00;99.90;;;;;;4973510;28;20582;-80
2021/01/30 17:06:14;;;;;;;2.07;1.10;;;6.00;99.90;;;;;;4990829;28;20175;-80
2021/01/30 17:08:40;;;;;;;1.30;0.97;;;6.00;99.90;;;;;;4990437;28;20186;-80
2021/01/30 17:11:07;;;;;;;3.10;1.20;;;6.00;99.90;;;;;;4990724;28;20636;-80
2021/01/30 17:13:36;;;;;;;1.30;1.02;;;5.90;99.90;;;;;;4973532;28;20170;-79
2021/01/30 17:16:05;;;;;;;1.90;1.10;;;6.00;99.90;;;;;;4990751;28;20167;-80
2021/01/30 17:18:32;;;;;;;1.80;1.67;;;5.90;99.90;;;;;;4973019;28;20737;-79
2021/01/30 17:20:59;;;;;;;1.40;1.02;;;5.90;99.90;;;;;;4990829;28;20179;-79
2021/01/30 17:23:26;;;;;;;1.60;0.90;;;5.90;99.90;;;;;;4995581;28;20174;-79
2021/01/30 17:25:52;;;;;;;1.50;1.20;;;5.90;99.90;;;;;;4957059;28;20205;-78
2021/01/30 17:28:18;;;;;;;1.60;1.20;;;5.80;99.90;;;;;;4991157;28;20195;-79
2021/01/30 17:30:44;;;;;;;1.77;1.30;;;5.80;99.90;;;;;;5010012;28;20196;-78
2021/01/30 17:33:10;;;;;;;2.65;1.20;;;5.80;99.90;;;;;;5010342;28;20166;-79
2021/01/30 17:35:36;;;;;;;1.88;1.10;;;5.80;99.90;;;;;;4992496;28;20198;-79
2021/01/30 17:38:05;;;;;;;1.35;1.08;;;5.80;99.90;;;;;;4976258;28;20233;-81
2021/01/30 17:40:32;;;;;;;1.63;1.17;;;5.70;99.90;;;;;;4992706;28;20177;-81
2021/01/30 17:42:58;;;;;;;1.85;1.52;;;5.70;99.90;;;;;;5013251;28;20174;-78
2021/01/30 17:45:26;;;;;;;1.85;1.30;;;5.70;99.90;;;;;;4996847;28;20178;-82
2021/01/30 17:47:51;;;;;;;1.40;1.20;;;5.70;99.90;;;;;;4981973;28;20634;-81
2021/01/30 17:50:18;;;;;;;1.40;1.27;;;5.70;99.90;;;;;;4965888;28;20213;-81
2021/01/30 17:52:44;;;;;;;1.63;1.10;;;5.70;99.90;;;;;;4998487;28;20578;-81
2021/01/30 17:55:10;;;;;;;1.67;1.20;;;5.70;99.90;;;;;;5007363;28;20666;-81
2021/01/30 17:57:38;;;;;;;1.77;1.38;;;5.70;99.90;;;;;;4978693;28;20649;-81
2021/01/30 18:00:10;;;;;;;1.60;1.20;;;5.60;99.90;;;;;;4979725;28;20580;-81
2021/01/30 18:02:35;;;;;;;1.40;1.10;;;5.70;99.90;;;;;;4962416;28;20344;-81
2021/01/30 18:05:01;;;;;;;1.77;1.20;;;5.70;99.90;;;;;;4996104;28;20179;-81
2021/01/30 18:07:29;;;;;;;1.63;1.20;;;5.70;99.90;;;;;;4980154;28;20175;-81
2021/01/30 18:09:55;;;;;;;1.90;1.20;;;5.70;99.90;;;;;;4998185;28;20205;-81
2021/01/30 18:12:21;;;;;;;1.30;1.20;;;5.70;99.90;;;;;;4997808;28;20257;-82
2021/01/30 18:14:47;;;;;;;2.37;1.43;;;5.70;99.90;;;;;;4978925;28;20198;-82
2021/01/30 18:17:12;;;;;;;1.98;1.45;;;5.70;99.90;;;;;;4976747;28;20175;-77
2021/01/30 18:19:40;;;;;;;1.70;1.30;;;5.70;99.90;;;;;;4993620;28;20229;-76
2021/01/30 18:22:06;;;;;;;3.20;2.78;;;5.70;99.90;;;;;;4976308;28;20164;-78
2021/01/30 18:24:32;;;;;;;2.03;1.27;;;5.70;99.90;;;;;;4991999;28;20175;-78
2021/01/30 18:26:59;;;;;;;2.00;1.60;;;5.70;99.90;;;;;;4975763;28;20185;-76
2021/01/30 18:29:25;;;;;;;5.75;2.70;;;5.70;99.90;;;;;;4998267;28;20247;-78
2021/01/30 18:31:51;;;;;;;2.63;2.03;;;5.80;99.90;;;;;;4958335;28;20202;-78
2021/01/30 18:34:17;;;;;;;2.15;1.90;;;5.80;99.90;;;;;;4959128;28;20171;-78
2021/01/30 18:36:43;;;;;;;2.60;1.90;;;5.80;99.90;;;;;;4976967;28;20206;-78
2021/01/30 18:39:10;;;;;;;2.38;1.88;;;5.80;99.90;;;;;;4978132;28;20573;-77
2021/01/30 18:41:37;;;;;;;1.73;1.63;;;5.80;99.90;;;;;;4994507;28;20179;-77
2021/01/30 18:44:05;;;;;;;2.28;1.70;;;5.80;99.90;;;;;;5002632;28;20170;-77
2021/01/30 18:46:32;;;;;;;2.20;1.70;;;5.70;99.90;;;;;;4987258;28;20166;-77
2021/01/30 18:48:57;;;;;;;2.38;1.45;;;5.70;99.90;;;;;;4960405;28;20210;-78
2021/01/30 18:51:24;;;;;;;2.87;1.60;;;5.70;99.90;;;;;;4974115;28;20200;-78
2021/01/30 18:53:50;;;;;;;2.15;1.95;;;5.60;99.90;;;;;;4973627;28;20717;-78
2021/01/30 18:56:17;;;;;;;1.98;1.52;;;5.50;99.90;;;;;;5012045;28;20170;-78
2021/01/30 18:58:45;;;;;;;2.65;1.65;;;5.50;99.90;;;;;;5012312;28;20567;-79
2021/01/30 19:01:12;;;;;;;3.33;2.05;;;5.40;99.90;;;;;;5000581;28;20175;-79
2021/01/30 19:03:37;;;;;;;1.50;1.33;;;5.40;99.90;;;;;;4992161;28;20555;-78
2021/01/30 19:06:03;;;;;;;2.57;2.20;;;5.30;99.90;;;;;;4973219;28;20171;-76
2021/01/30 19:08:29;;;;;;;2.07;1.80;;;5.30;99.90;;;;;;5000714;28;20190;-78
2021/01/30 19:10:55;;;;;;;3.20;1.90;;;5.30;99.90;;;;;;4994773;28;20201;-78
2021/01/30 19:13:20;;;;;;;2.13;1.80;;;5.30;99.90;;;;;;4999639;28;20270;-78
2021/01/30 19:15:46;;;;;;;3.10;1.83;;;5.40;99.90;;;;;;4995699;28;20529;-78
2021/01/30 19:18:12;;;;;;;2.00;1.60;;;5.40;99.90;;;;;;4992525;28;20186;-78
2021/01/30 19:20:38;;;;;;;2.40;2.10;;;5.40;99.90;;;;;;4995993;28;20245;-78
2021/01/30 19:23:06;;;;;;;3.15;2.20;;;5.40;99.90;;;;;;4994708;28;20573;-78
2021/01/30 19:25:33;;;;;;;3.15;1.85;;;5.30;99.90;;;;;;5012318;28;20541;-78
2021/01/30 19:28:00;;;;;;;2.75;1.90;;;5.20;99.90;;;;;;5011789;28;20582;-78
2021/01/30 19:30:28;;;;;;;3.67;2.80;;;5.20;99.90;;;;;;4976381;28;20670;-77
2021/01/30 19:33:00;;;;;;;3.78;3.05;;;5.20;99.90;;;;;;4974995;28;20185;-78
2021/01/30 19:35:29;;;;;;;3.75;2.75;;;5.10;99.90;;;;;;4992741;28;20510;-78
2021/01/30 19:37:55;;;;;;;4.50;2.58;;;5.10;99.90;;;;;;4996555;28;20647;-78
2021/01/30 19:40:22;;;;;;;2.17;1.67;;;5.10;99.90;;;;;;5012481;28;20162;-79
2021/01/30 19:42:49;;;;;;;2.40;1.95;;;5.10;99.90;;;;;;4978437;28;20577;-78
2021/01/30 19:45:15;;;;;;;2.50;1.55;;;5.10;99.90;;;;;;5012116;28;20170;-78
2021/01/30 19:47:48;;;;;;;2.85;2.55;;;5.20;99.90;;;;;;5012464;28;20228;-79
2021/01/30 19:50:32;;;;;;;2.78;1.75;;;5.20;99.90;;;;;;4967878;28;20293;-82
2021/01/30 19:52:59;;;;;;;2.88;2.25;;;5.20;99.90;;;;;;4974086;28;20178;-78
2021/01/30 19:55:26;;;;;;;2.42;2.22;;;5.20;99.90;;;;;;4963222;28;20691;-78
2021/01/30 19:57:53;;;;;;;3.10;2.20;;;5.20;99.90;;;;;;4942113;28;20608;-77
2021/01/30 20:00:19;;;;;;;5.47;2.40;;;5.20;99.90;;;;;;4992835;28;20250;-78
2021/01/30 20:02:45;;;;;;;2.40;2.20;;;5.20;99.90;;;;;;4975720;28;20186;-79
2021/01/30 20:05:14;;;;;;;3.33;2.20;;;5.20;99.90;;;;;;4974560;28;20512;-78
2021/01/30 20:07:40;;;;;;;2.75;2.55;;;5.30;99.90;;;;;;4992886;28;20613;-78
2021/01/30 20:10:08;;;;;;;2.17;1.90;;;5.30;99.90;;;;;;4958839;28;20207;-77
2021/01/30 20:12:33;;;;;;;1.90;1.60;;;5.30;99.90;;;;;;4967471;28;20166;-78
2021/01/30 20:14:59;;;;;;;3.33;2.83;;;5.40;99.90;;;;;;5012113;28;20250;-78
2021/01/30 20:17:25;;;;;;;3.57;2.40;;;5.40;99.90;;;;;;4995115;28;20174;-77
2021/01/30 20:19:51;;;;;;;3.60;2.60;;;5.40;99.90;;;;;;4994504;28;20621;-78
2021/01/30 20:22:19;;;;;;;2.50;2.13;;;5.40;99.90;;;;;;4999623;28;20175;-78
2021/01/30 20:24:48;;;;;;;3.00;2.30;;;5.40;99.90;;;;;;4962947;28;20259;-78
2021/01/30 20:27:24;;;;;;;2.72;2.53;;;5.40;99.90;;;;;;4956744;28;20174;-79
2021/01/30 20:29:51;;;;;;;3.15;2.85;;;5.40;99.90;;;;;;4981045;28;20253;-79
2021/01/30 20:32:18;;;;;;;2.55;2.17;;;5.40;99.90;;;;;;4947202;28;20167;-79
2021/01/30 20:34:46;;;;;;;3.25;2.92;;;5.40;99.90;;;;;;4972500;28;20167;-79
2021/01/30 20:37:11;;;;;;;2.72;2.47;;;5.40;99.90;;;;;;4973188;28;20160;-80
2021/01/30 20:39:37;;;;;;;2.10;1.90;;;5.40;99.90;;;;;;4972980;28;20241;-80
2021/01/30 20:42:42;;;;;;;1.98;1.70;;;5.40;99.90;;;;;;4956000;28;20183;-80
2021/01/30 20:45:21;;;;;;;3.10;2.20;;;5.40;99.90;;;;;;4924480;28;20171;-79
2021/01/30 20:48:23;;;;;;;3.10;2.67;;;5.50;99.90;;;;;;4947289;28;20212;-80
2021/01/30 20:51:15;;;;;;;2.40;1.88;;;5.40;99.90;;;;;;4929846;28;20204;-78
2021/01/30 20:54:07;;;;;;;2.20;2.00;;;5.40;99.90;;;;;;4948316;28;20184;-80
2021/01/30 20:56:34;;;;;;;2.23;2.03;;;5.40;99.90;;;;;;4940272;28;20174;-82
2021/01/30 20:59:00;;;;;;;2.00;1.55;;;5.40;99.90;;;;;;4955483;28;20210;-80
2021/01/30 21:01:26;;;;;;;3.25;2.20;;;5.40;99.90;;;;;;4964101;28;20210;-78
2021/01/30 21:03:52;;;;;;;3.03;2.60;;;5.40;99.90;;;;;;4968051;28;20187;-78
2021/01/30 21:06:21;;;;;;;3.03;2.50;;;5.40;99.90;;;;;;4992299;28;20595;-78
2021/01/30 21:08:49;;;;;;;2.55;1.83;;;5.40;99.90;;;;;;4988636;28;20279;-80
2021/01/30 21:11:16;;;;;;;3.45;2.40;;;5.40;99.90;;;;;;5002384;28;20198;-82
2021/01/30 21:13:42;;;;;;;3.00;1.90;;;5.40;99.90;;;;;;4977238;28;20174;-82
2021/01/30 21:16:09;;;;;;;2.35;1.80;;;5.40;99.90;;;;;;5006311;28;20175;-81
2021/01/30 21:18:35;;;;;;;2.47;2.08;;;5.40;99.90;;;;;;5005579;28;20189;-79
2021/01/30 21:21:01;;;;;;;2.13;1.85;;;5.40;99.90;;;;;;4992814;28;20174;-80
2021/01/30 21:23:27;;;;;;;2.30;1.90;;;5.40;99.90;;;;;;5010548;28;20170;-79
2021/01/30 21:25:52;;;;;;;2.90;2.27;;;5.50;99.90;;;;;;4990227;28;20175;-79
2021/01/30 21:28:18;;;;;;;3.03;2.40;;;5.40;99.90;;;;;;4999001;28;20701;-80
2021/01/30 21:30:44;;;;;;;3.25;2.25;;;5.40;99.90;;;;;;4993165;28;20652;-78
2021/01/30 21:33:11;;;;;;;2.25;2.05;;;5.40;99.90;;;;;;4992834;28;20170;-78
2021/01/30 21:35:36;;;;;;;2.55;2.30;;;5.40;99.90;;;;;;5010076;28;20249;-77
2021/01/30 21:38:03;;;;;;;2.20;2.00;;;5.40;99.90;;;;;;5012685;23;20222;-82
2021/01/30 21:40:33;;;;;;;3.75;2.42;;;5.40;99.90;;;;;;5003982;28;20661;-79
2021/01/30 21:42:59;;;;;;;2.72;2.30;;;5.40;99.90;;;;;;4997758;28;20657;-80
2021/01/30 21:45:26;;;;;;;2.25;1.80;;;5.40;99.90;;;;;;5012233;28;20220;-81
2021/01/30 21:47:53;;;;;;;3.33;1.90;;;5.40;99.90;;;;;;4968753;28;20604;-83
2021/01/30 21:50:23;;;;;;;2.42;2.22;;;5.40;99.90;;;;;;4980378;28;20198;-81
2021/01/30 21:52:49;;;;;;;2.72;2.13;;;5.40;99.90;;;;;;5012047;28;20198;-82
2021/01/30 21:55:15;;;;;;;2.38;2.00;;;5.40;99.90;;;;;;4994769;28;20181;-84
2021/01/30 21:57:46;;;;;;;2.80;2.42;;;5.40;99.90;;;;;;4971062;28;20572;-82
2021/01/30 22:00:19;;;;;;;2.50;2.17;;;5.40;99.90;;;;;;4999684;28;20245;-83
2021/01/30 22:02:45;;;;;;;2.13;1.85;;;5.40;99.90;;;;;;4984027;28;20675;-82
2021/01/30 22:05:11;;;;;;;2.20;2.00;;;5.40;99.90;;;;;;4955354;28;20203;-80
2021/01/30 22:07:39;;;;;;;1.73;1.50;;;5.40;99.90;;;;;;4955186;28;20278;-82
2021/01/30 22:10:06;;;;;;;2.23;2.03;;;5.50;99.90;;;;;;4972379;28;20188;-82
